Terminal Aerodrome Forecast
Issued by NWS

Home | Current Version | Previous Version | Text Only | Print | Product List | Glossary On
Versions: 1 2 3 4 5 6 7 8 9 10 11 12 13 14 15 16 17 18 19 20 21 22 23 24
000
FTUS43 KMKX 310520
TAFENW
TAF
KENW 310520Z 3106/0106 31010G17KT P6SM -RA OVC035
     FM310700 32013G22KT P6SM BKN025 OVC035
     FM311100 33018G27KT 2SM -SHSN OVC015
     FM311400 35024G39KT P6SM BKN025
     FM312300 36022G32KT P6SM SCT040
     FM010400 35015G24KT P6SM BKN035=

USA.gov is the U.S. government's official web portal to all federal, state and local government web resources and services.